• Join FlightAware (Why Join?)
  • Login
  • US Flag 
02:33PM EDT


 

Airport Tracker/Info


-or-


 

Live Flight TrackerFlight Track Log ✈ IGO244 ✈ 24-Apr-2013 ✈ VABB / BOM - VOCI / COK

Flight Track Log - Related Links

Times and Time Zones

All times are in EDT time to prevent confusion due to time zone crossing. See the IGO244 flight status page for this flight to view local times or setup timezone preferences in your user account.

Time Position Orientation Groundspeed Altitude Reporting Facility
EDT Latitude Longitude Course Direction KTS MPH feet Rate Location/Type
02:25AM 18.5360 72.8780 161° South 393 452 18,500  Level FlightAware
02:25AM 18.4690 72.9020 161° South 393 452 18,500 1,260 Level FlightAware
02:27AM 18.2940 72.9630 162° South 436 502 21,400 1,500 Climbing FlightAware
02:28AM 18.2060 72.9940 161° South 440 506 22,000 420 Climbing FlightAware
02:28AM 18.1410 73.0170 161° South 440 506 22,000  Level FlightAware
02:29AM 18.0750 73.0410 161° South 440 506 22,000  Level FlightAware
02:30AM 18.0100 73.0650 161° South 440 506 22,000 3,360 Level FlightAware
02:30AM 17.8700 73.1100 163° South 447 514 26,800 3,720 Climbing FlightAware
02:31AM 17.7820 73.1410 161° South 457 526 27,600 1,020 Climbing FlightAware
02:32AM 17.7010 73.1690 162° South 467 537 28,300 720 Climbing FlightAware
02:33AM 17.5900 73.2080 161° South 475 547 28,800 1,080 Climbing FlightAware
02:34AM 17.4900 73.2420 162° South 484 557 30,100 1,860 Climbing FlightAware
02:34AM 17.4050 73.2720 161° South 474 545 31,500 2,160 Climbing FlightAware
02:35AM 17.3230 73.3000 162° South 455 524 33,000 1,680 Climbing FlightAware
02:36AM 17.2320 73.3310 162° South 456 525 33,900 1,080 Climbing FlightAware
02:36AM 17.1500 73.3590 162° South 454 522 34,600 780 Climbing FlightAware
02:37AM 17.0700 73.3810 165° South 443 510 35,000 300 Climbing FlightAware
02:38AM 16.9970 73.4000 166° South 441 507 35,000  Level FlightAware
02:38AM 16.9290 73.4180 166° South 441 507 35,000  Level FlightAware
02:39AM 16.8450 73.4400 166° South 441 507 35,000  Level FlightAware
02:40AM 16.7780 73.4570 166° South 441 507 35,000  Level FlightAware
02:40AM 16.7110 73.4750 166° South 441 507 35,000  Level FlightAware
02:41AM 16.6430 73.4920 167° South 441 507 35,000  Level FlightAware
02:42AM 16.5760 73.5100 166° South 441 507 35,000  Level FlightAware
02:43AM 16.4920 73.5320 166° South 441 507 35,000  Level FlightAware
02:43AM 16.4250 73.5490 166° South 441 507 35,000  Level FlightAware
02:44AM 16.3570 73.5670 166° South 441 507 35,000  Level FlightAware
02:45AM 16.2900 73.5840 166° South 441 507 35,000  Level FlightAware
02:45AM 16.2230 73.6020 166° South 441 507 35,000  Level FlightAware
02:46AM 16.1390 73.6230 166° South 441 507 35,000  Level FlightAware
02:47AM 16.0710 73.6410 166° South 441 507 35,000 -540 Level FlightAware
02:49AM 15.9070 73.7196 155° Southeast  Level Estimated
02:50AM 15.8115 73.7654 155° Southeast  Level Estimated
02:51AM 15.7160 73.8111 155° Southeast  Level Estimated
02:52AM 15.6204 73.8567 155° Southeast  Level Estimated
02:53AM 15.5248 73.9023 155° Southeast  Level Estimated
02:54AM 15.4293 73.9479 155° Southeast  Level Estimated
02:55AM 15.3337 73.9934 155° Southeast  Level Estimated
02:56AM 15.2381 74.0389 155° Southeast  Level Estimated
02:57AM 15.1425 74.0844 155° Southeast  Level Estimated
02:58AM 15.0469 74.1298 155° Southeast  Level Estimated
02:59AM 14.9513 74.1752 155° Southeast  Level Estimated
03:00AM 14.8557 74.2205 155° Southeast  Level Estimated
03:01AM 14.7601 74.2658 155° Southeast  Level Estimated
03:02AM 14.6644 74.3110 155° Southeast  Level Estimated
03:03AM 14.5688 74.3562 155° Southeast  Level Estimated
03:04AM 14.4731 74.4014 155° Southeast  Level Estimated
03:05AM 14.3774 74.4465 155° Southeast  Level Estimated
03:06AM 14.2818 74.4916 155° Southeast  Level Estimated
03:07AM 14.1861 74.5367 155° Southeast  Level Estimated
03:08AM 14.0904 74.5817 155° Southeast  Level Estimated
03:09AM 13.9947 74.6266 155° Southeast  Level Estimated
03:10AM 13.8990 74.6716 155° Southeast  Level Estimated
03:11AM 13.8033 74.7165 156° South  Level Estimated
03:12AM 13.7076 74.7613 156° South  Level Estimated
03:13AM 13.6118 74.8062 156° South  Level Estimated
03:14AM 13.5161 74.8510 156° South  Level Estimated
03:15AM 13.4203 74.8957 156° South  Level Estimated
03:16AM 13.3246 74.9404 156° South  Level Estimated
03:17AM 13.2288 74.9851 156° South  Level Estimated
03:18AM 13.1330 75.0297 156° South  Level Estimated
03:19AM 13.0373 75.0744 156° South  Level Estimated
03:20AM 12.9415 75.1189 156° South  Level Estimated
03:21AM 12.8457 75.1635 156° South  Level Estimated
03:22AM 12.7499 75.2080 156° South  Level Estimated
03:23AM 12.6541 75.2525 156° South  Level Estimated
03:24AM 12.5583 75.2969 156° South  Level Estimated
03:25AM 12.4624 75.3413 156° South  Level Estimated
03:26AM 12.3666 75.3857 156° South  Level Estimated
03:27AM 12.2708 75.4301 156° South  Level Estimated
03:28AM 12.1749 75.4744 156° South  Level Estimated
03:29AM 12.0791 75.5186 156° South  Level Estimated
03:30AM 11.9832 75.5629 156° South  Level Estimated
03:31AM 11.8873 75.6071 156° South  Level Estimated
03:32AM 11.7915 75.6513 156° South  Level Estimated
03:32AM 10.8220 76.0880 156° South 385 443 12,400  Level FlightAware
03:33AM 11.6956 75.6955 156° South  Level Estimated
03:33AM 10.7510 76.1180 157° South 337 388 11,200  Level FlightAware
03:34AM 10.6950 76.1430 156° South 305 351 10,100 -1,560 Descending FlightAware
03:34AM 10.6580 76.1590 157° South 297 342 9,400 -1,440 Descending FlightAware
03:35AM 10.6270 76.1720 158° South 294 338 8,800 -1,500 Descending FlightAware
03:35AM 10.6060 76.1810 157° South 291 335 8,400 -1,500 Descending FlightAware
03:35AM 10.5690 76.1960 158° South 287 330 7,700 -1,440 Descending FlightAware
03:36AM 10.5400 76.2090 156° South 286 329 7,100 -1,440 Descending FlightAware
03:36AM 10.5030 76.2250 157° South 286 329 6,400 -1,440 Descending FlightAware
03:37AM 10.4660 76.2400 158° South 284 327 5,700 -1,440 Descending FlightAware
03:37AM 10.4350 76.2540 156° South 279 321 5,100 -1,020 Descending FlightAware
03:38AM 10.3990 76.2690 158° South 280 322 4,800 -540 Descending FlightAware
03:38AM 10.3820 76.2760 158° South 277 319 4,700 -480 Descending FlightAware
03:38AM 10.3520 76.2880 159° South 275 316 4,500 -600 Descending FlightAware
03:38AM 10.3460 76.2890 171° South 276 318 4,400 -1,020 Descending FlightAware
03:39AM 10.3170 76.2740 207° Southwest 273 314 4,000 -900 Descending FlightAware
03:39AM 10.3100 76.2580 246° West 267 307 3,800 -480 Descending FlightAware
03:40AM 10.2930 76.2300 238° Southwest 259 298 3,700 -120 Descending FlightAware
03:40AM 10.2670 76.2080 220° Southwest 230 265 3,700  Level FlightAware
03:40AM 10.2460 76.1950 211° Southwest 214 246 3,700  Level FlightAware
03:41AM 10.2190 76.1820 205° Southwest 213 245 3,700 -540 Level FlightAware
03:41AM 10.1910 76.1740 196° South 213 245 3,200 -780 Descending FlightAware
03:42AM 10.1570 76.1840 164° South 198 228 2,800 -780 Descending FlightAware
03:43AM 10.1470 76.2090 112° Southeast 195 224 2,300 -600 Descending FlightAware
03:43AM 10.1480 76.2440 88° East 166 191 2,100 -180 Descending FlightAware
03:44AM 10.1480 76.2660 90° East 155 178 2,100  Level FlightAware
03:44AM 10.1490 76.2840 87° East 157 181 2,100 -300 Level FlightAware
03:44AM 10.1490 76.2940 90° East 155 178 1,900 -840 Descending FlightAware
03:45AM 10.1490 76.3160 90° East 157 181 1,500 -900 Descending FlightAware
03:45AM 10.1500 76.3350 87° East 154 177 1,100 -1,020 Descending FlightAware
03:45AM 10.1500 76.3380 90° East 154 177 1,000 -900 Descending FlightAware
03:46AM 10.1500 76.3650 90° East 153 176 500 -900 Descending FlightAware
03:49AM 10.1520 76.4019 87° East  Level Estimated
03:50AM 10.1520 76.4019 315° West  Level Estimated
03:51AM 10.1520 76.4019 315° West  Level Estimated
03:52AM 10.1520 76.4019 315° West  Level Estimated
03:53AM 10.1520 76.4019 315° West  Level Estimated
03:54AM 10.1520 76.4019 315° West  Level Estimated
03:55AM 10.1520 76.4019 315° West  Level Estimated